Terminal Aerodrome Forecast
Issued by NWS

Home | Current Version | Previous Version | Text Only | Print | Product List | Glossary On
Versions: 1 2 3 4 5 6 7 8 9 10 11 12 13
000
FTUS46 KSGX 210500
TAFONT
TAF
KONT 210536Z 2106/2212 VRB06KT P6SM FEW030 SCT150=

USA.gov is the U.S. government's official web portal to all federal, state and local government web resources and services.